sensor_id;sensor_type;location;lat;lon;timestamp;pressure;altitude;pressure_sealevel;temperature;humidity
63190;BME280;49286;44.460;26.114;2023-07-30T00:01:10;100048.63;;;21.61;100.00
63190;BME280;49286;44.460;26.114;2023-07-30T00:03:35;100078.81;;;21.79;100.00
63190;BME280;49286;44.460;26.114;2023-07-30T00:06:00;100182.34;;;22.45;100.00
63190;BME280;49286;44.460;26.114;2023-07-30T00:08:26;100064.41;;;21.66;100.00
63190;BME280;49286;44.460;26.114;2023-07-30T00:10:51;100171.03;;;22.23;100.00
63190;BME280;49286;44.460;26.114;2023-07-30T00:13:17;100081.44;;;21.63;100.00
63190;BME280;49286;44.460;26.114;2023-07-30T00:15:45;100153.31;;;21.85;100.00
63190;BME280;49286;44.460;26.114;2023-07-30T00:18:11;100155.59;;;21.76;100.00
63190;BME280;49286;44.460;26.114;2023-07-30T00:20:36;100175.88;;;21.97;100.00
63190;BME280;49286;44.460;26.114;2023-07-30T00:23:02;100074.75;;;21.18;100.00
63190;BME280;49286;44.460;26.114;2023-07-30T00:25:27;100153.91;;;21.56;100.00
63190;BME280;49286;44.460;26.114;2023-07-30T00:27:53;100182.16;;;21.79;100.00
63190;BME280;49286;44.460;26.114;2023-07-30T00:30:18;100137.59;;;21.62;100.00
63190;BME280;49286;44.460;26.114;2023-07-30T00:32:44;100185.59;;;21.98;100.00
63190;BME280;49286;44.460;26.114;2023-07-30T00:35:10;100076.66;;;21.53;100.00
63190;BME280;49286;44.460;26.114;2023-07-30T00:37:36;100127.59;;;21.65;100.00
63190;BME280;49286;44.460;26.114;2023-07-30T00:40:02;100192.38;;;21.88;100.00
63190;BME280;49286;44.460;26.114;2023-07-30T00:42:28;100208.31;;;21.89;100.00
63190;BME280;49286;44.460;26.114;2023-07-30T00:44:54;100194.09;;;21.89;100.00
63190;BME280;49286;44.460;26.114;2023-07-30T00:47:20;100175.72;;;21.83;100.00
63190;BME280;49286;44.460;26.114;2023-07-30T00:49:46;100097.06;;;21.35;100.00
63190;BME280;49286;44.460;26.114;2023-07-30T00:52:12;100172.66;;;21.73;100.00
63190;BME280;49286;44.460;26.114;2023-07-30T00:54:38;100167.19;;;21.75;100.00
63190;BME280;49286;44.460;26.114;2023-07-30T00:57:05;100054.94;;;21.24;100.00
63190;BME280;49286;44.460;26.114;2023-07-30T00:59:32;100155.00;;;21.52;100.00
63190;BME280;49286;44.460;26.114;2023-07-30T01:01:59;100092.38;;;21.03;100.00
63190;BME280;49286;44.460;26.114;2023-07-30T01:04:25;100161.00;;;21.57;100.00
63190;BME280;49286;44.460;26.114;2023-07-30T01:06:50;100157.13;;;21.45;100.00
63190;BME280;49286;44.460;26.114;2023-07-30T01:09:16;100063.00;;;20.67;100.00
63190;BME280;49286;44.460;26.114;2023-07-30T01:11:42;100063.56;;;20.74;100.00
63190;BME280;49286;44.460;26.114;2023-07-30T01:14:09;100156.34;;;21.24;100.00
63190;BME280;49286;44.460;26.114;2023-07-30T01:16:35;100150.91;;;21.25;100.00
63190;BME280;49286;44.460;26.114;2023-07-30T01:19:01;100157.91;;;21.28;100.00
63190;BME280;49286;44.460;26.114;2023-07-30T01:21:32;100161.75;;;21.41;100.00
63190;BME280;49286;44.460;26.114;2023-07-30T01:23:57;100072.78;;;20.85;100.00
63190;BME280;49286;44.460;26.114;2023-07-30T01:26:27;100162.47;;;21.26;100.00
63190;BME280;49286;44.460;26.114;2023-07-30T01:28:58;100074.34;;;20.72;100.00
63190;BME280;49286;44.460;26.114;2023-07-30T01:31:26;100091.25;;;20.90;100.00
63190;BME280;49286;44.460;26.114;2023-07-30T01:33:54;100167.06;;;21.22;100.00
63190;BME280;49286;44.460;26.114;2023-07-30T01:36:20;100131.66;;;21.19;100.00
63190;BME280;49286;44.460;26.114;2023-07-30T01:38:47;100071.72;;;20.71;100.00
63190;BME280;49286;44.460;26.114;2023-07-30T01:41:14;100121.66;;;20.67;100.00
63190;BME280;49286;44.460;26.114;2023-07-30T01:43:40;100156.00;;;20.94;100.00
63190;BME280;49286;44.460;26.114;2023-07-30T01:46:05;100038.19;;;20.27;100.00
63190;BME280;49286;44.460;26.114;2023-07-30T01:48:30;100151.78;;;21.07;100.00
63190;BME280;49286;44.460;26.114;2023-07-30T01:50:56;100091.31;;;20.70;100.00
63190;BME280;49286;44.460;26.114;2023-07-30T01:53:21;100041.59;;;20.31;100.00
63190;BME280;49286;44.460;26.114;2023-07-30T01:55:47;100129.31;;;20.94;100.00
63190;BME280;49286;44.460;26.114;2023-07-30T01:58:13;100111.78;;;20.88;100.00
63190;BME280;49286;44.460;26.114;2023-07-30T02:00:39;100041.78;;;20.26;100.00
63190;BME280;49286;44.460;26.114;2023-07-30T02:03:04;100115.25;;;20.90;100.00
63190;BME280;49286;44.460;26.114;2023-07-30T02:05:30;100148.69;;;21.16;100.00
63190;BME280;49286;44.460;26.114;2023-07-30T02:07:55;100030.41;;;20.41;100.00
63190;BME280;49286;44.460;26.114;2023-07-30T02:10:21;100108.09;;;20.72;100.00
63190;BME280;49286;44.460;26.114;2023-07-30T02:12:46;100047.31;;;20.21;100.00
63190;BME280;49286;44.460;26.114;2023-07-30T02:15:12;100057.56;;;20.50;100.00
63190;BME280;49286;44.460;26.114;2023-07-30T02:17:38;100147.91;;;21.14;100.00
63190;BME280;49286;44.460;26.114;2023-07-30T02:20:04;100124.06;;;20.73;100.00
63190;BME280;49286;44.460;26.114;2023-07-30T02:22:29;100107.28;;;20.51;100.00
63190;BME280;49286;44.460;26.114;2023-07-30T02:24:55;100155.63;;;20.63;100.00
63190;BME280;49286;44.460;26.114;2023-07-30T02:27:22;100049.97;;;20.02;100.00
63190;BME280;49286;44.460;26.114;2023-07-30T02:29:48;100089.00;;;20.22;100.00
63190;BME280;49286;44.460;26.114;2023-07-30T02:32:13;100092.41;;;20.26;100.00
63190;BME280;49286;44.460;26.114;2023-07-30T02:34:39;100145.22;;;20.37;100.00
63190;BME280;49286;44.460;26.114;2023-07-30T02:37:04;100158.69;;;20.34;100.00
63190;BME280;49286;44.460;26.114;2023-07-30T02:39:30;100134.50;;;20.38;100.00
63190;BME280;49286;44.460;26.114;2023-07-30T02:41:55;100050.25;;;19.76;100.00
63190;BME280;49286;44.460;26.114;2023-07-30T02:44:20;100138.06;;;20.58;100.00
63190;BME280;49286;44.460;26.114;2023-07-30T02:46:46;100036.78;;;19.99;100.00
63190;BME280;49286;44.460;26.114;2023-07-30T02:49:11;100057.81;;;19.85;100.00
63190;BME280;49286;44.460;26.114;2023-07-30T02:51:37;100033.00;;;19.85;100.00
63190;BME280;49286;44.460;26.114;2023-07-30T02:54:07;100156.91;;;20.74;100.00
63190;BME280;49286;44.460;26.114;2023-07-30T02:56:32;100088.09;;;20.23;100.00
63190;BME280;49286;44.460;26.114;2023-07-30T02:58:58;100163.66;;;20.62;100.00
63190;BME280;49286;44.460;26.114;2023-07-30T03:01:24;100080.38;;;20.17;100.00
63190;BME280;49286;44.460;26.114;2023-07-30T03:03:50;100057.66;;;20.09;100.00
63190;BME280;49286;44.460;26.114;2023-07-30T03:06:15;100147.47;;;20.66;100.00
63190;BME280;49286;44.460;26.114;2023-07-30T03:08:42;100154.75;;;20.63;100.00
63190;BME280;49286;44.460;26.114;2023-07-30T03:11:08;100077.06;;;20.31;100.00
63190;BME280;49286;44.460;26.114;2023-07-30T03:13:33;100074.47;;;20.30;100.00
63190;BME280;49286;44.460;26.114;2023-07-30T03:15:59;100045.72;;;20.17;100.00
63190;BME280;49286;44.460;26.114;2023-07-30T03:18:24;100156.78;;;20.77;100.00
63190;BME280;49286;44.460;26.114;2023-07-30T03:20:50;100175.56;;;20.74;100.00
63190;BME280;49286;44.460;26.114;2023-07-30T03:23:15;100170.19;;;20.55;100.00
63190;BME280;49286;44.460;26.114;2023-07-30T03:25:41;100070.41;;;19.81;100.00
63190;BME280;49286;44.460;26.114;2023-07-30T03:28:06;100092.84;;;19.96;100.00
63190;BME280;49286;44.460;26.114;2023-07-30T03:30:32;100102.84;;;19.91;100.00
63190;BME280;49286;44.460;26.114;2023-07-30T03:32:57;100201.31;;;20.54;100.00
63190;BME280;49286;44.460;26.114;2023-07-30T03:35:23;100082.72;;;19.84;100.00
63190;BME280;49286;44.460;26.114;2023-07-30T03:37:48;100184.88;;;20.44;100.00
63190;BME280;49286;44.460;26.114;2023-07-30T03:40:14;100110.03;;;20.10;100.00
63190;BME280;49286;44.460;26.114;2023-07-30T03:42:39;100094.94;;;20.09;100.00
63190;BME280;49286;44.460;26.114;2023-07-30T03:45:05;100182.41;;;20.60;100.00
63190;BME280;49286;44.460;26.114;2023-07-30T03:47:31;100108.66;;;20.20;100.00
63190;BME280;49286;44.460;26.114;2023-07-30T03:49:56;100161.81;;;20.64;100.00
63190;BME280;49286;44.460;26.114;2023-07-30T03:52:22;100108.13;;;20.32;100.00
63190;BME280;49286;44.460;26.114;2023-07-30T03:54:47;100071.50;;;20.17;100.00
63190;BME280;49286;44.460;26.114;2023-07-30T03:57:12;100177.97;;;20.80;100.00
63190;BME280;49286;44.460;26.114;2023-07-30T03:59:38;100108.69;;;20.39;100.00
63190;BME280;49286;44.460;26.114;2023-07-30T04:02:03;100094.09;;;20.48;100.00
63190;BME280;49286;44.460;26.114;2023-07-30T04:04:29;100191.47;;;20.77;100.00
63190;BME280;49286;44.460;26.114;2023-07-30T04:06:55;100085.50;;;20.01;100.00
63190;BME280;49286;44.460;26.114;2023-07-30T04:09:20;100188.66;;;20.59;100.00
63190;BME280;49286;44.460;26.114;2023-07-30T04:11:46;100098.63;;;20.06;100.00
63190;BME280;49286;44.460;26.114;2023-07-30T04:14:11;100090.97;;;19.98;100.00
63190;BME280;49286;44.460;26.114;2023-07-30T04:16:37;100133.38;;;20.23;100.00
63190;BME280;49286;44.460;26.114;2023-07-30T04:19:02;100128.97;;;20.22;100.00
63190;BME280;49286;44.460;26.114;2023-07-30T04:21:28;100087.16;;;20.04;100.00
63190;BME280;49286;44.460;26.114;2023-07-30T04:23:53;100170.59;;;20.66;100.00
63190;BME280;49286;44.460;26.114;2023-07-30T04:26:19;100074.28;;;19.95;100.00
63190;BME280;49286;44.460;26.114;2023-07-30T04:28:44;100211.25;;;20.71;100.00
63190;BME280;49286;44.460;26.114;2023-07-30T04:31:09;100212.44;;;20.84;100.00
63190;BME280;49286;44.460;26.114;2023-07-30T04:33:35;100209.25;;;20.95;100.00
63190;BME280;49286;44.460;26.114;2023-07-30T04:36:00;100078.59;;;20.37;100.00
63190;BME280;49286;44.460;26.114;2023-07-30T04:38:26;100120.69;;;20.49;100.00
63190;BME280;49286;44.460;26.114;2023-07-30T04:40:51;100206.69;;;21.13;100.00
63190;BME280;49286;44.460;26.114;2023-07-30T04:43:17;100211.50;;;21.23;100.00
63190;BME280;49286;44.460;26.114;2023-07-30T04:45:42;100208.47;;;21.31;100.00
63190;BME280;49286;44.460;26.114;2023-07-30T04:48:08;100165.19;;;21.24;100.00
63190;BME280;49286;44.460;26.114;2023-07-30T04:50:34;100158.00;;;21.26;100.00
63190;BME280;49286;44.460;26.114;2023-07-30T04:52:59;100093.34;;;20.83;100.00
63190;BME280;49286;44.460;26.114;2023-07-30T04:55:25;100210.56;;;21.62;100.00
63190;BME280;49286;44.460;26.114;2023-07-30T04:57:50;100126.97;;;21.24;100.00
63190;BME280;49286;44.460;26.114;2023-07-30T05:00:16;100208.56;;;21.48;100.00
63190;BME280;49286;44.460;26.114;2023-07-30T05:02:42;100189.06;;;21.46;100.00
63190;BME280;49286;44.460;26.114;2023-07-30T05:05:07;100205.16;;;21.81;100.00
63190;BME280;49286;44.460;26.114;2023-07-30T05:07:33;100144.03;;;21.58;100.00
63190;BME280;49286;44.460;26.114;2023-07-30T05:09:59;100204.47;;;21.95;100.00
63190;BME280;49286;44.460;26.114;2023-07-30T05:12:24;100190.09;;;21.80;100.00
63190;BME280;49286;44.460;26.114;2023-07-30T05:14:49;100187.19;;;22.02;100.00
63190;BME280;49286;44.460;26.114;2023-07-30T05:17:15;100187.81;;;22.07;100.00
63190;BME280;49286;44.460;26.114;2023-07-30T05:19:40;100099.19;;;21.99;100.00
63190;BME280;49286;44.460;26.114;2023-07-30T05:22:06;100203.44;;;23.01;100.00
63190;BME280;49286;44.460;26.114;2023-07-30T05:24:33;100169.44;;;23.18;100.00
63190;BME280;49286;44.460;26.114;2023-07-30T05:26:59;100141.81;;;23.02;100.00
63190;BME280;49286;44.460;26.114;2023-07-30T05:29:24;100107.53;;;23.55;100.00
63190;BME280;49286;44.460;26.114;2023-07-30T05:31:50;100155.16;;;23.96;100.00
63190;BME280;49286;44.460;26.114;2023-07-30T05:34:15;100110.97;;;24.46;100.00
63190;BME280;49286;44.460;26.114;2023-07-30T05:36:41;100192.19;;;25.48;100.00
63190;BME280;49286;44.460;26.114;2023-07-30T05:39:06;100216.22;;;25.64;100.00
63190;BME280;49286;44.460;26.114;2023-07-30T05:41:32;100169.00;;;25.60;100.00
63190;BME280;49286;44.460;26.114;2023-07-30T05:43:57;100180.59;;;26.41;100.00
63190;BME280;49286;44.460;26.114;2023-07-30T05:46:22;100115.63;;;26.34;100.00
63190;BME280;49286;44.460;26.114;2023-07-30T05:48:48;100131.06;;;26.82;100.00
63190;BME280;49286;44.460;26.114;2023-07-30T05:51:13;100208.41;;;27.42;100.00
63190;BME280;49286;44.460;26.114;2023-07-30T05:53:39;100172.69;;;27.75;100.00
63190;BME280;49286;44.460;26.114;2023-07-30T05:56:04;100215.28;;;27.83;100.00
63190;BME280;49286;44.460;26.114;2023-07-30T05:58:30;100193.31;;;28.12;100.00
63190;BME280;49286;44.460;26.114;2023-07-30T06:00:56;100159.50;;;28.19;100.00
63190;BME280;49286;44.460;26.114;2023-07-30T06:03:22;100199.81;;;27.61;100.00
63190;BME280;49286;44.460;26.114;2023-07-30T06:05:47;100230.25;;;28.58;100.00
63190;BME280;49286;44.460;26.114;2023-07-30T06:08:12;100120.25;;;28.15;100.00
63190;BME280;49286;44.460;26.114;2023-07-30T06:10:38;100195.41;;;28.08;100.00
63190;BME280;49286;44.460;26.114;2023-07-30T06:13:05;100211.34;;;28.47;99.32
63190;BME280;49286;44.460;26.114;2023-07-30T06:15:32;100209.28;;;27.91;100.00
63190;BME280;49286;44.460;26.114;2023-07-30T06:17:58;100191.34;;;28.60;98.42
63190;BME280;49286;44.460;26.114;2023-07-30T06:20:23;100138.25;;;28.03;98.64
63190;BME280;49286;44.460;26.114;2023-07-30T06:22:48;100199.13;;;28.88;97.78
63190;BME280;49286;44.460;26.114;2023-07-30T06:25:14;100123.31;;;28.44;95.11
63190;BME280;49286;44.460;26.114;2023-07-30T06:27:39;100172.72;;;29.14;89.82
63190;BME280;49286;44.460;26.114;2023-07-30T06:30:05;100137.47;;;29.15;89.24
63190;BME280;49286;44.460;26.114;2023-07-30T06:32:31;100146.06;;;29.20;87.88
63190;BME280;49286;44.460;26.114;2023-07-30T06:34:56;100140.75;;;29.19;88.40
63190;BME280;49286;44.460;26.114;2023-07-30T06:37:22;100089.59;;;28.61;88.97
63190;BME280;49286;44.460;26.114;2023-07-30T06:39:47;100186.75;;;29.51;84.94
63190;BME280;49286;44.460;26.114;2023-07-30T06:42:13;100117.78;;;29.24;81.02
63190;BME280;49286;44.460;26.114;2023-07-30T06:44:39;100180.56;;;28.83;87.21
63190;BME280;49286;44.460;26.114;2023-07-30T06:47:04;100105.03;;;28.93;83.10
63190;BME280;49286;44.460;26.114;2023-07-30T06:49:30;100177.38;;;29.66;81.45
63190;BME280;49286;44.460;26.114;2023-07-30T06:51:55;100084.44;;;28.92;80.81
63190;BME280;49286;44.460;26.114;2023-07-30T06:54:21;100202.06;;;28.85;86.34
63190;BME280;49286;44.460;26.114;2023-07-30T06:56:46;100091.22;;;28.64;89.53
63190;BME280;49286;44.460;26.114;2023-07-30T06:59:12;100176.72;;;29.31;84.13
63190;BME280;49286;44.460;26.114;2023-07-30T07:01:37;100093.72;;;29.10;79.35
63190;BME280;49286;44.460;26.114;2023-07-30T07:04:03;100101.78;;;29.65;77.70
63190;BME280;49286;44.460;26.114;2023-07-30T07:06:28;100177.97;;;29.81;78.06
63190;BME280;49286;44.460;26.114;2023-07-30T07:08:54;100083.47;;;28.70;79.36
63190;BME280;49286;44.460;26.114;2023-07-30T07:11:19;100176.16;;;29.16;83.81
63190;BME280;49286;44.460;26.114;2023-07-30T07:13:45;100101.59;;;29.13;84.67
63190;BME280;49286;44.460;26.114;2023-07-30T07:16:10;100097.00;;;29.36;82.70
63190;BME280;49286;44.460;26.114;2023-07-30T07:18:36;100076.72;;;28.53;78.86
63190;BME280;49286;44.460;26.114;2023-07-30T07:21:02;100071.91;;;28.79;79.92
63190;BME280;49286;44.460;26.114;2023-07-30T07:23:27;100171.38;;;29.08;78.70
63190;BME280;49286;44.460;26.114;2023-07-30T07:25:53;100059.94;;;28.50;78.26
63190;BME280;49286;44.460;26.114;2023-07-30T07:28:18;100163.28;;;29.08;71.71
63190;BME280;49286;44.460;26.114;2023-07-30T07:30:44;100106.16;;;28.90;70.87
63190;BME280;49286;44.460;26.114;2023-07-30T07:33:10;100030.19;;;28.05;67.63
63190;BME280;49286;44.460;26.114;2023-07-30T07:35:41;100141.25;;;29.01;69.53
63190;BME280;49286;44.460;26.114;2023-07-30T07:38:06;100111.09;;;28.62;75.22
63190;BME280;49286;44.460;26.114;2023-07-30T07:40:38;100143.50;;;28.62;71.03
63190;BME280;49286;44.460;26.114;2023-07-30T07:43:08;100144.22;;;28.76;81.02
63190;BME280;49286;44.460;26.114;2023-07-30T07:45:33;100155.53;;;28.92;72.82
63190;BME280;49286;44.460;26.114;2023-07-30T07:47:59;100158.44;;;29.00;72.34
63190;BME280;49286;44.460;26.114;2023-07-30T07:50:25;100150.13;;;28.92;72.24
63190;BME280;49286;44.460;26.114;2023-07-30T07:52:50;100146.31;;;28.83;76.62
63190;BME280;49286;44.460;26.114;2023-07-30T07:55:16;100145.06;;;28.54;92.31
63190;BME280;49286;44.460;26.114;2023-07-30T07:57:42;100105.53;;;28.30;88.94
63190;BME280;49286;44.460;26.114;2023-07-30T08:00:08;100043.69;;;28.05;84.73
63190;BME280;49286;44.460;26.114;2023-07-30T08:02:34;100121.16;;;28.83;76.97
63190;BME280;49286;44.460;26.114;2023-07-30T08:05:00;100067.50;;;28.67;73.34
63190;BME280;49286;44.460;26.114;2023-07-30T08:07:25;100131.94;;;28.94;79.76
63190;BME280;49286;44.460;26.114;2023-07-30T08:09:51;100134.84;;;29.25;77.02
63190;BME280;49286;44.460;26.114;2023-07-30T08:12:18;100132.25;;;29.35;65.22
63190;BME280;49286;44.460;26.114;2023-07-30T08:14:44;100133.13;;;29.24;73.96
63190;BME280;49286;44.460;26.114;2023-07-30T08:17:09;100127.59;;;29.69;67.12
63190;BME280;49286;44.460;26.114;2023-07-30T08:19:35;100057.81;;;29.52;63.67
63190;BME280;49286;44.460;26.114;2023-07-30T08:22:00;100046.13;;;29.30;66.86
63190;BME280;49286;44.460;26.114;2023-07-30T08:24:25;100051.56;;;29.51;61.11
63190;BME280;49286;44.460;26.114;2023-07-30T08:26:51;100129.66;;;30.19;59.46
63190;BME280;49286;44.460;26.114;2023-07-30T08:29:16;100126.94;;;30.19;58.17
63190;BME280;49286;44.460;26.114;2023-07-30T08:31:42;100038.06;;;29.93;57.56
63190;BME280;49286;44.460;26.114;2023-07-30T08:34:07;100036.50;;;30.21;56.65
63190;BME280;49286;44.460;26.114;2023-07-30T08:36:33;100131.09;;;30.75;57.25
63190;BME280;49286;44.460;26.114;2023-07-30T08:38:58;100112.84;;;31.07;58.08
63190;BME280;49286;44.460;26.114;2023-07-30T08:41:24;100117.66;;;31.04;55.73
63190;BME280;49286;44.460;26.114;2023-07-30T08:43:49;100121.28;;;31.24;56.37
63190;BME280;49286;44.460;26.114;2023-07-30T08:46:17;100101.63;;;31.51;56.46
63190;BME280;49286;44.460;26.114;2023-07-30T08:48:42;100097.94;;;31.52;52.87
63190;BME280;49286;44.460;26.114;2023-07-30T08:51:08;100106.88;;;31.82;51.11
63190;BME280;49286;44.460;26.114;2023-07-30T08:53:36;100101.47;;;31.91;52.45
63190;BME280;49286;44.460;26.114;2023-07-30T08:56:01;100109.78;;;32.37;50.95
63190;BME280;49286;44.460;26.114;2023-07-30T08:58:28;100107.66;;;32.41;49.11
63190;BME280;49286;44.460;26.114;2023-07-30T09:00:55;100034.59;;;32.00;45.42
63190;BME280;49286;44.460;26.114;2023-07-30T09:03:23;100026.59;;;32.08;45.30
63190;BME280;49286;44.460;26.114;2023-07-30T09:05:49;100018.03;;;32.41;44.83
63190;BME280;49286;44.460;26.114;2023-07-30T09:08:15;100099.69;;;33.04;45.85
63190;BME280;49286;44.460;26.114;2023-07-30T09:10:42;100104.34;;;33.12;41.73
63190;BME280;49286;44.460;26.114;2023-07-30T09:13:08;100026.78;;;32.62;43.53
63190;BME280;49286;44.460;26.114;2023-07-30T09:15:38;100094.50;;;33.47;40.31
63190;BME280;49286;44.460;26.114;2023-07-30T09:18:06;100024.44;;;33.13;40.13
63190;BME280;49286;44.460;26.114;2023-07-30T09:20:41;100097.41;;;33.89;40.09
63190;BME280;49286;44.460;26.114;2023-07-30T09:23:07;100023.28;;;32.97;42.16
63190;BME280;49286;44.460;26.114;2023-07-30T09:25:34;100010.13;;;32.20;43.59
63190;BME280;49286;44.460;26.114;2023-07-30T09:28:00;100088.66;;;32.78;42.39
63190;BME280;49286;44.460;26.114;2023-07-30T09:30:26;100000.72;;;32.87;43.41
63190;BME280;49286;44.460;26.114;2023-07-30T09:32:56;100075.31;;;33.92;44.22
63190;BME280;49286;44.460;26.114;2023-07-30T09:35:23;100072.13;;;33.97;43.98
63190;BME280;49286;44.460;26.114;2023-07-30T09:37:59;100072.31;;;33.77;44.21
63190;BME280;49286;44.460;26.114;2023-07-30T09:40:36;99978.50;;;33.63;43.01
63190;BME280;49286;44.460;26.114;2023-07-30T09:43:05;100062.78;;;32.74;44.16
63190;BME280;49286;44.460;26.114;2023-07-30T09:45:36;99982.50;;;33.33;44.56
63190;BME280;49286;44.460;26.114;2023-07-30T09:48:03;100043.09;;;33.79;42.58
63190;BME280;49286;44.460;26.114;2023-07-30T09:50:30;100054.56;;;34.17;43.96
63190;BME280;49286;44.460;26.114;2023-07-30T09:53:03;99984.19;;;34.39;43.38
63190;BME280;49286;44.460;26.114;2023-07-30T09:55:29;99970.69;;;34.29;42.16
63190;BME280;49286;44.460;26.114;2023-07-30T09:57:54;100060.50;;;34.13;41.80
63190;BME280;49286;44.460;26.114;2023-07-30T10:00:20;99955.03;;;34.31;41.92
63190;BME280;49286;44.460;26.114;2023-07-30T10:02:46;100040.19;;;35.67;40.75
63190;BME280;49286;44.460;26.114;2023-07-30T10:05:20;100034.81;;;34.50;40.06
63190;BME280;49286;44.460;26.114;2023-07-30T10:07:56;100040.75;;;34.96;39.35
63190;BME280;49286;44.460;26.114;2023-07-30T10:10:24;100035.22;;;35.87;39.21
63190;BME280;49286;44.460;26.114;2023-07-30T10:12:50;100023.50;;;36.34;39.55
63190;BME280;49286;44.460;26.114;2023-07-30T10:15:20;99946.22;;;35.13;38.93
63190;BME280;49286;44.460;26.114;2023-07-30T10:17:48;99932.03;;;34.93;39.82
63190;BME280;49286;44.460;26.114;2023-07-30T10:22:47;99954.91;;;35.16;40.09
63190;BME280;49286;44.460;26.114;2023-07-30T10:25:15;100005.13;;;36.12;38.83
63190;BME280;49286;44.460;26.114;2023-07-30T10:27:42;99919.09;;;35.11;38.64
63190;BME280;49286;44.460;26.114;2023-07-30T10:30:14;100022.16;;;36.70;38.08
63190;BME280;49286;44.460;26.114;2023-07-30T10:41:04;99914.34;;;36.87;37.51
63190;BME280;49286;44.460;26.114;2023-07-30T10:43:31;99916.91;;;36.66;38.42
63190;BME280;49286;44.460;26.114;2023-07-30T10:45:59;99977.81;;;36.12;37.51
63190;BME280;49286;44.460;26.114;2023-07-30T10:48:31;99985.50;;;36.48;37.65
63190;BME280;49286;44.460;26.114;2023-07-30T10:51:00;99908.53;;;34.92;37.47
63190;BME280;49286;44.460;26.114;2023-07-30T10:53:25;99926.22;;;35.45;37.36
63190;BME280;49286;44.460;26.114;2023-07-30T10:55:52;99912.81;;;35.99;37.47
63190;BME280;49286;44.460;26.114;2023-07-30T10:58:18;99884.06;;;35.56;38.23
63190;BME280;49286;44.460;26.114;2023-07-30T11:00:43;99921.47;;;36.42;36.67
63190;BME280;49286;44.460;26.114;2023-07-30T11:03:08;99961.72;;;36.88;36.75
63190;BME280;49286;44.460;26.114;2023-07-30T11:05:34;99918.56;;;36.44;36.24
63190;BME280;49286;44.460;26.114;2023-07-30T11:08:03;99884.53;;;36.78;37.30
63190;BME280;49286;44.460;26.114;2023-07-30T11:10:28;99893.34;;;36.88;36.89
63190;BME280;49286;44.460;26.114;2023-07-30T11:12:54;99948.44;;;37.23;37.04
63190;BME280;49286;44.460;26.114;2023-07-30T11:15:19;99881.22;;;37.05;37.27
63190;BME280;49286;44.460;26.114;2023-07-30T11:17:45;99955.47;;;37.78;36.31
63190;BME280;49286;44.460;26.114;2023-07-30T11:20:24;99959.22;;;37.62;35.62
63190;BME280;49286;44.460;26.114;2023-07-30T11:22:52;99955.41;;;37.10;37.13
63190;BME280;49286;44.460;26.114;2023-07-30T11:25:18;99850.00;;;36.53;36.30
63190;BME280;49286;44.460;26.114;2023-07-30T11:27:47;99965.81;;;37.15;36.38
63190;BME280;49286;44.460;26.114;2023-07-30T11:30:12;99929.06;;;36.86;35.11
63190;BME280;49286;44.460;26.114;2023-07-30T11:32:38;99872.31;;;36.88;35.52
63190;BME280;49286;44.460;26.114;2023-07-30T11:35:05;99946.38;;;36.47;36.19
63190;BME280;49286;44.460;26.114;2023-07-30T11:37:32;99932.03;;;36.14;36.68
63190;BME280;49286;44.460;26.114;2023-07-30T11:39:59;99927.56;;;36.21;36.43
63190;BME280;49286;44.460;26.114;2023-07-30T11:42:26;99867.56;;;35.97;34.43
63190;BME280;49286;44.460;26.114;2023-07-30T11:44:55;99861.63;;;36.24;35.44
63190;BME280;49286;44.460;26.114;2023-07-30T11:47:21;99821.50;;;35.46;33.95
63190;BME280;49286;44.460;26.114;2023-07-30T11:49:59;99878.97;;;36.00;35.14
63190;BME280;49286;44.460;26.114;2023-07-30T11:52:24;99931.19;;;36.45;34.74
63190;BME280;49286;44.460;26.114;2023-07-30T11:55:03;99906.56;;;34.59;35.02
63190;BME280;49286;44.460;26.114;2023-07-30T11:57:35;99895.72;;;35.41;35.71
63190;BME280;49286;44.460;26.114;2023-07-30T12:00:01;99830.06;;;35.35;36.12
63190;BME280;49286;44.460;26.114;2023-07-30T12:02:29;99815.22;;;35.37;35.17
63190;BME280;49286;44.460;26.114;2023-07-30T12:04:54;99901.53;;;35.94;36.14
63190;BME280;49286;44.460;26.114;2023-07-30T12:07:23;99766.72;;;34.51;36.43
63190;BME280;49286;44.460;26.114;2023-07-30T12:09:49;99852.78;;;34.94;36.42
63190;BME280;49286;44.460;26.114;2023-07-30T12:12:15;99823.81;;;34.68;36.06
63190;BME280;49286;44.460;26.114;2023-07-30T12:17:15;99783.94;;;34.43;37.20
63190;BME280;49286;44.460;26.114;2023-07-30T12:19:43;99803.53;;;34.79;37.97
63190;BME280;49286;44.460;26.114;2023-07-30T12:22:09;99864.38;;;34.96;37.22
63190;BME280;49286;44.460;26.114;2023-07-30T12:24:34;99884.13;;;35.06;37.38
63190;BME280;49286;44.460;26.114;2023-07-30T12:27:00;99865.91;;;34.91;37.11
63190;BME280;49286;44.460;26.114;2023-07-30T12:29:25;99800.13;;;34.28;37.36
63190;BME280;49286;44.460;26.114;2023-07-30T12:31:51;99776.44;;;34.37;38.14
63190;BME280;49286;44.460;26.114;2023-07-30T12:34:19;99797.56;;;33.76;38.13
63190;BME280;49286;44.460;26.114;2023-07-30T12:36:45;99842.91;;;33.33;39.32
63190;BME280;49286;44.460;26.114;2023-07-30T12:39:11;99837.91;;;33.46;39.59
63190;BME280;49286;44.460;26.114;2023-07-30T12:41:36;99810.50;;;33.39;39.44
63190;BME280;49286;44.460;26.114;2023-07-30T12:44:02;99843.88;;;33.92;39.47
63190;BME280;49286;44.460;26.114;2023-07-30T12:46:29;99751.16;;;33.94;38.92